createdAt,value
2022-11-06T08:48:30.159Z,2.80
2022-11-06T08:52:01.059Z,3.20
2022-11-06T08:55:15.479Z,3.00
2022-11-06T08:58:03.576Z,3.42
2022-11-06T09:00:32.600Z,3.05
2022-11-06T09:03:21.847Z,3.50
2022-11-06T09:05:54.648Z,3.20
2022-11-06T09:08:24.370Z,3.10
2022-11-06T09:10:58.161Z,2.80
2022-11-06T09:13:27.651Z,2.78
2022-11-06T09:15:56.359Z,2.72
2022-11-06T09:18:25.088Z,2.30
2022-11-06T09:21:00.760Z,2.58
2022-11-06T09:23:29.616Z,2.53
2022-11-06T09:25:58.679Z,2.10
2022-11-06T09:28:27.546Z,2.05
2022-11-06T09:30:58.051Z,1.92
2022-11-06T09:33:26.893Z,2.20
2022-11-06T09:35:57.056Z,2.20
2022-11-06T09:38:25.816Z,2.22
2022-11-06T09:40:58.042Z,1.85
2022-11-06T09:44:05.051Z,3.33
2022-11-06T09:46:48.126Z,2.92
2022-11-06T09:53:18.496Z,3.00
2022-11-06T09:56:34.320Z,2.97
2022-11-06T09:59:08.409Z,2.80
2022-11-06T10:01:52.072Z,2.50
2022-11-06T10:04:46.409Z,2.33
2022-11-06T10:07:46.651Z,2.72
2022-11-06T10:14:48.969Z,2.92
2022-11-06T10:18:30.171Z,3.08
2022-11-06T10:21:48.776Z,2.63
2022-11-06T10:24:24.721Z,2.92
2022-11-06T10:26:57.052Z,3.38
2022-11-06T10:30:06.065Z,2.97
2022-11-06T10:33:02.409Z,2.38
2022-11-06T10:36:16.248Z,3.45
2022-11-06T10:38:49.337Z,3.65
2022-11-06T10:45:07.120Z,3.10
2022-11-06T10:47:52.135Z,3.50
2022-11-06T10:50:52.051Z,4.20
2022-11-06T10:54:03.651Z,4.05
2022-11-06T10:57:13.816Z,3.60
2022-11-06T11:06:29.667Z,4.28
2022-11-06T11:09:20.257Z,4.03
2022-11-06T11:12:09.849Z,4.20
2022-11-06T11:14:43.208Z,4.85
2022-11-06T11:17:37.981Z,4.45
2022-11-06T11:21:14.176Z,4.75
2022-11-06T11:23:46.222Z,5.55
2022-11-06T11:26:50.411Z,5.00
2022-11-06T11:32:43.830Z,4.95
2022-11-06T11:35:45.062Z,5.65
2022-11-06T11:39:13.095Z,5.15
2022-11-06T11:42:12.861Z,5.35
2022-11-06T11:45:18.710Z,5.45
2022-11-06T11:59:05.610Z,5.03
2022-11-06T12:02:27.607Z,4.82
2022-11-06T12:05:24.769Z,5.32
2022-11-06T12:07:56.449Z,5.55
2022-11-06T12:11:04.221Z,5.20
2022-11-06T12:13:35.289Z,4.80
2022-11-06T12:17:00.703Z,5.32
2022-11-06T12:20:13.199Z,4.88
2022-11-06T12:22:47.537Z,5.65
2022-11-06T12:25:22.268Z,5.30
2022-11-06T12:27:55.284Z,5.18
2022-11-06T12:30:23.828Z,5.30
2022-11-06T12:33:03.123Z,5.47
2022-11-06T12:35:33.278Z,6.03
2022-11-06T12:38:16.859Z,5.13
2022-11-06T12:40:52.118Z,5.53
2022-11-06T12:43:29.943Z,5.40
2022-11-06T12:46:26.088Z,5.40
2022-11-06T12:51:59.726Z,5.43
2022-11-06T12:54:49.986Z,5.18
2022-11-06T12:57:30.158Z,6.57
2022-11-06T13:00:07.278Z,6.38
2022-11-06T13:03:20.744Z,6.85
2022-11-06T13:05:56.927Z,5.90
2022-11-06T13:08:35.722Z,6.53
2022-11-06T13:11:16.086Z,7.07
2022-11-06T13:14:05.424Z,6.53
2022-11-06T13:16:42.053Z,6.43
2022-11-06T13:19:20.839Z,6.93
2022-11-06T13:22:20.447Z,6.47
2022-11-06T13:24:55.147Z,6.45
2022-11-06T13:27:35.799Z,6.45
2022-11-06T13:30:07.185Z,6.55
2022-11-06T13:32:38.878Z,6.35
2022-11-06T13:35:13.278Z,6.65
2022-11-06T13:37:45.415Z,7.25
2022-11-06T13:40:23.849Z,6.97
2022-11-06T13:42:58.918Z,6.00
2022-11-06T13:45:28.598Z,7.35
2022-11-06T13:48:06.179Z,6.65
2022-11-06T13:50:39.998Z,7.78
2022-11-06T13:53:18.358Z,7.97
2022-11-06T13:56:01.240Z,6.53
2022-11-06T13:58:48.026Z,7.30
2022-11-06T14:01:29.784Z,7.90
2022-11-06T14:04:29.969Z,7.03
2022-11-06T14:07:01.679Z,7.85
2022-11-06T14:09:33.199Z,8.05
2022-11-06T14:12:04.999Z,7.32
2022-11-06T14:14:35.638Z,7.03
2022-11-06T14:17:20.946Z,6.93
2022-11-06T14:20:06.181Z,6.43
2022-11-06T14:22:40.078Z,6.55
2022-11-06T14:25:47.718Z,6.50
2022-11-06T14:28:31.208Z,6.95
2022-11-06T14:31:22.556Z,7.30
2022-11-06T14:34:03.367Z,7.45
2022-11-06T14:36:35.865Z,8.23
